To NAV CANADA Home Page Login to a new session Search on AWWS site Feedback and Comments Disclaimer Vers la page française équivalente Tips FAQ What's new on the site To the Forecasts and Observations / NOTAM section To "File a Flight Plan" website Publications and other links Update of the User's profile FIC Telephone Numbers My Weather Data Folder Route Weather Data Regional Weather Data Local Weather Data To the Forecasts and Observations / NOTAM section
Request Generated 04/29/2016 at 17:51:13 UTC . Weather information available at that time is displayed.

METAR/TAF

HIGH LEVEL/AB    (show WxCam)

METAR CYOJ 291700Z 15005KT 15SM FEW090 16/02 A2980 RMK AC1 VIA CYPE
SLP101 DENSITY ALT 1600FT=
METAR CYOJ 291600Z 13008KT 15SM FEW090 FEW250 14/02 A2981 RMK AC2CI1
CI TR VIA CYPE FSS SLP104 DENSITY ALT 1300FT=
METAR CYOJ 291500Z 12006KT 15SM SCT160 SCT260 12/01 A2981 RMK AC3CI1
VIA CYPE FSS SLP105=

TAF AMD CYOJ 291423Z 2914/3001 VRB03KT P6SM FEW100 SCT200
FM292000 14010KT P6SM SCT050 BKN100 TEMPO 2920/3001 P6SM -SHRA
BKN050 OVC100
BECMG 2923/3001 32006KT
RMK FCST BASED ON AUTO OBS. NXT FCST BY 291900Z=
Your time UTC time
Weather data provided by Environment Canada and NAV CANADA